createdAt,value
2022-10-01T00:01:20.219Z,17.42
2022-10-01T00:03:50.496Z,16.38
2022-10-01T00:06:22.305Z,18.52
2022-10-01T00:08:51.365Z,18.38
2022-10-01T00:11:25.489Z,17.42
2022-10-01T00:13:54.411Z,18.55
2022-10-01T00:16:29.388Z,20.38
2022-10-01T00:18:58.156Z,14.63
2022-10-01T00:21:31.833Z,16.48
2022-10-01T00:24:05.493Z,17.05
2022-10-01T00:26:37.205Z,18.10
2022-10-01T00:29:12.641Z,18.08
2022-10-01T00:31:40.092Z,18.20
2022-10-01T00:34:07.437Z,15.70
2022-10-01T00:36:34.934Z,15.75
2022-10-01T00:39:02.437Z,20.63
2022-10-01T00:41:34.526Z,18.13
2022-10-01T00:44:32.218Z,18.40
2022-10-01T00:47:32.540Z,18.63
2022-10-01T00:50:16.484Z,16.25
2022-10-01T00:52:57.261Z,16.73
2022-10-01T00:55:53.336Z,16.63
2022-10-01T00:58:23.661Z,14.57
2022-10-01T01:00:57.221Z,12.75
2022-10-01T01:03:26.407Z,17.40
2022-10-01T01:05:53.384Z,14.73
2022-10-01T01:08:20.882Z,13.32
2022-10-01T01:11:28.467Z,13.77
2022-10-01T01:14:15.040Z,15.35
2022-10-01T01:17:01.466Z,14.65
2022-10-01T01:20:24.209Z,16.33
2022-10-01T01:23:27.238Z,19.85
2022-10-01T01:26:29.485Z,15.70
2022-10-01T01:29:37.045Z,15.90
2022-10-01T01:32:19.433Z,18.90
2022-10-01T01:34:57.796Z,21.83
2022-10-01T01:37:35.243Z,22.60
2022-10-01T01:40:11.445Z,18.63
2022-10-01T01:42:46.314Z,26.75
2022-10-01T01:45:28.766Z,21.33
2022-10-01T01:48:02.248Z,24.00
2022-10-01T01:50:44.564Z,20.15
2022-10-01T01:53:11.511Z,22.60
2022-10-01T01:55:40.096Z,21.90
2022-10-01T01:58:08.211Z,22.05
2022-10-01T02:03:02.897Z,21.98
2022-10-01T02:05:59.491Z,20.65
2022-10-01T02:09:09.707Z,19.13
2022-10-01T02:12:08.747Z,18.90
2022-10-01T02:15:21.394Z,19.88
2022-10-01T02:18:30.410Z,19.65
2022-10-01T02:21:28.177Z,22.42
2022-10-01T02:24:33.603Z,20.55
2022-10-01T02:27:15.522Z,20.42
2022-10-01T02:29:46.397Z,21.33
2022-10-01T02:32:19.453Z,20.83
2022-10-01T02:34:52.680Z,19.88
2022-10-01T02:37:27.645Z,22.48
2022-10-01T02:40:00.517Z,21.67
2022-10-01T02:42:32.417Z,18.67
2022-10-01T02:45:05.442Z,25.60
2022-10-01T02:47:50.952Z,21.02
2022-10-01T02:50:17.999Z,24.15
2022-10-01T02:53:08.995Z,22.95
2022-10-01T02:55:45.004Z,25.30
2022-10-01T02:58:12.658Z,27.58
2022-10-01T03:00:39.630Z,26.33
2022-10-01T03:03:06.591Z,21.92
2022-10-01T03:05:33.518Z,28.08
2022-10-01T03:08:00.797Z,25.40
2022-10-01T03:10:27.764Z,26.60
2022-10-01T03:12:54.754Z,27.10
2022-10-01T03:15:22.020Z,26.10
2022-10-01T03:17:55.859Z,24.27
2022-10-01T03:20:23.860Z,20.80
2022-10-01T03:25:17.921Z,23.08
2022-10-01T03:27:46.585Z,22.50
2022-10-01T03:30:13.942Z,21.88
2022-10-01T03:32:40.943Z,21.55
2022-10-01T03:35:08.586Z,23.15
2022-10-01T03:37:35.524Z,20.17
2022-10-01T03:40:03.167Z,26.63
2022-10-01T03:42:30.060Z,23.98
2022-10-01T03:44:56.989Z,25.35
2022-10-01T03:47:24.441Z,21.02
2022-10-01T03:49:51.399Z,17.58
2022-10-01T03:52:19.156Z,20.30
2022-10-01T03:54:46.054Z,22.20
2022-10-01T03:57:12.989Z,20.00
2022-10-01T03:59:39.933Z,19.08
2022-10-01T04:02:07.683Z,21.13
2022-10-01T04:04:34.888Z,19.15
2022-10-01T04:07:01.858Z,17.55
2022-10-01T04:09:28.810Z,20.17
2022-10-01T04:11:56.165Z,20.17
2022-10-01T04:14:23.124Z,20.73
2022-10-01T04:16:52.440Z,18.75
2022-10-01T04:19:20.454Z,20.77
2022-10-01T04:21:48.042Z,21.15
2022-10-01T04:24:14.968Z,17.08
2022-10-01T04:26:41.932Z,21.52
2022-10-01T04:29:09.076Z,17.23
2022-10-01T04:31:36.438Z,17.13
2022-10-01T04:34:04.188Z,17.55
2022-10-01T04:36:31.258Z,18.27
2022-10-01T04:39:02.178Z,14.00
2022-10-01T04:41:31.637Z,16.20
2022-10-01T04:44:00.101Z,17.40
2022-10-01T04:46:30.429Z,17.58
2022-10-01T04:48:57.828Z,17.08
2022-10-01T04:51:25.039Z,21.33
2022-10-01T04:53:52.071Z,19.00
2022-10-01T04:56:18.988Z,18.05
2022-10-01T04:58:46.003Z,19.60
2022-10-01T05:01:13.007Z,17.38
2022-10-01T05:03:39.978Z,15.85
2022-10-01T05:06:06.955Z,16.70
2022-10-01T05:08:33.860Z,15.85
2022-10-01T05:11:00.782Z,18.60
2022-10-01T05:13:30.195Z,15.98
2022-10-01T05:15:59.330Z,15.52
2022-10-01T05:18:26.333Z,14.95
2022-10-01T05:20:53.318Z,15.48
2022-10-01T05:23:20.296Z,14.77
2022-10-01T05:25:47.327Z,15.85
2022-10-01T05:28:18.398Z,15.30
2022-10-01T05:30:49.061Z,14.68
2022-10-01T05:33:16.138Z,14.93
2022-10-01T05:35:43.092Z,17.85
2022-10-01T05:38:10.544Z,16.10
2022-10-01T05:40:37.510Z,13.13
2022-10-01T05:43:04.527Z,18.75
2022-10-01T05:45:32.738Z,15.48
2022-10-01T05:48:07.201Z,19.08
2022-10-01T05:50:40.525Z,14.98
2022-10-01T05:53:12.049Z,15.20
2022-10-01T05:55:39.061Z,14.55
2022-10-01T05:58:11.199Z,14.45
2022-10-01T06:00:41.899Z,17.25
2022-10-01T06:03:15.348Z,13.45
2022-10-01T06:05:45.166Z,14.77
2022-10-01T06:08:13.262Z,16.60
2022-10-01T06:13:08.288Z,14.98
2022-10-01T06:15:39.284Z,12.57
2022-10-01T06:18:10.601Z,15.52
2022-10-01T06:20:40.986Z,17.13
2022-10-01T06:23:12.661Z,13.88
2022-10-01T06:25:43.523Z,14.93
2022-10-01T06:28:14.912Z,13.35
2022-10-01T06:30:42.584Z,13.43
2022-10-01T06:33:15.468Z,13.30
2022-10-01T06:35:49.362Z,14.10
2022-10-01T06:38:20.720Z,12.48
2022-10-01T06:41:02.059Z,11.05
2022-10-01T06:43:31.866Z,13.02
2022-10-01T06:46:04.758Z,12.85
2022-10-01T06:48:35.525Z,11.80
2022-10-01T06:51:04.165Z,15.30
2022-10-01T06:53:32.254Z,12.57
2022-10-01T06:58:35.098Z,14.95
2022-10-01T07:01:04.049Z,11.17
2022-10-01T07:03:31.797Z,17.50
2022-10-01T07:06:05.507Z,15.05
2022-10-01T07:08:33.409Z,11.77
2022-10-01T07:13:31.239Z,14.10
2022-10-01T07:15:58.224Z,15.30
2022-10-01T07:18:25.378Z,13.18
2022-10-01T07:20:52.341Z,13.10
2022-10-01T07:23:19.296Z,12.63
2022-10-01T07:25:46.419Z,14.73
2022-10-01T07:28:20.690Z,17.87
2022-10-01T07:31:03.179Z,15.30
2022-10-01T07:33:30.244Z,14.35
2022-10-01T07:36:02.374Z,11.85
2022-10-01T07:38:30.230Z,16.45
2022-10-01T07:40:58.960Z,18.63
2022-10-01T07:43:26.326Z,12.73
2022-10-01T07:45:55.205Z,11.98
2022-10-01T07:48:22.288Z,14.40
2022-10-01T07:50:49.661Z,12.68
2022-10-01T07:53:18.490Z,14.13
2022-10-01T07:55:46.040Z,10.15
2022-10-01T07:58:13.425Z,12.93
2022-10-01T08:00:40.629Z,10.60
2022-10-01T08:03:07.610Z,13.05
2022-10-01T08:05:36.279Z,13.75
2022-10-01T08:08:09.290Z,13.13
2022-10-01T08:10:39.370Z,12.13
2022-10-01T08:13:16.546Z,10.95
2022-10-01T08:15:50.671Z,10.50
2022-10-01T08:18:17.704Z,12.75
2022-10-01T08:20:44.740Z,12.05
2022-10-01T08:23:16.957Z,12.82
2022-10-01T08:25:45.147Z,10.88
2022-10-01T08:28:13.133Z,13.20
2022-10-01T08:35:43.722Z,9.65
2022-10-01T08:38:13.293Z,12.52
2022-10-01T08:40:51.343Z,10.63
2022-10-01T08:43:40.285Z,9.57
2022-10-01T08:46:20.983Z,12.55
2022-10-01T08:49:43.965Z,12.73
2022-10-01T08:52:37.449Z,9.48
2022-10-01T08:55:26.242Z,12.23
2022-10-01T08:58:05.486Z,9.55
2022-10-01T09:00:41.918Z,8.40
2022-10-01T09:03:15.577Z,11.20
2022-10-01T09:06:06.777Z,10.38
2022-10-01T09:09:13.683Z,8.40
2022-10-01T09:12:00.339Z,6.82
2022-10-01T09:15:16.501Z,7.93
2022-10-01T09:18:12.518Z,8.52
2022-10-01T09:20:57.358Z,8.27
2022-10-01T09:23:36.702Z,6.13
2022-10-01T09:26:11.825Z,6.28
2022-10-01T09:28:41.697Z,6.85
2022-10-01T09:31:43.024Z,5.60
2022-10-01T09:34:24.846Z,5.68
2022-10-01T09:37:22.356Z,5.75
2022-10-01T09:40:16.581Z,5.35
2022-10-01T09:42:44.221Z,6.68
2022-10-01T09:45:15.699Z,5.30
2022-10-01T09:47:51.779Z,4.97
2022-10-01T09:50:38.602Z,5.57
2022-10-01T09:53:20.103Z,6.70
2022-10-01T09:56:00.010Z,6.60
2022-10-01T09:58:30.946Z,6.90
2022-10-01T10:00:58.191Z,5.68
2022-10-01T10:03:32.060Z,4.10
2022-10-01T10:06:01.290Z,6.40
2022-10-01T10:08:40.216Z,5.85
2022-10-01T10:11:22.730Z,6.15
2022-10-01T10:14:04.500Z,8.65
2022-10-01T10:16:42.208Z,6.15
2022-10-01T10:19:31.059Z,6.53
2022-10-01T10:22:23.410Z,7.72
2022-10-01T10:24:53.452Z,8.50
2022-10-01T10:27:30.691Z,7.90
2022-10-01T10:30:16.246Z,10.05
2022-10-01T10:32:47.230Z,7.38
2022-10-01T10:35:26.219Z,10.70
2022-10-01T10:37:57.749Z,8.50
2022-10-01T10:40:39.856Z,10.02
2022-10-01T10:43:22.835Z,10.57
2022-10-01T10:45:57.123Z,9.23
2022-10-01T10:48:44.056Z,10.27
2022-10-01T10:51:10.982Z,8.07
2022-10-01T10:53:46.028Z,19.98
2022-10-01T10:56:25.454Z,10.43
2022-10-01T10:58:53.918Z,73.90
2022-10-01T11:01:43.489Z,13.40
2022-10-01T11:04:34.624Z,9.90
2022-10-01T11:07:01.753Z,10.32
2022-10-01T11:10:27.135Z,12.07
2022-10-01T11:13:38.116Z,10.75
2022-10-01T11:17:01.763Z,9.73
2022-10-01T11:20:35.633Z,9.10
2022-10-01T11:23:39.974Z,8.98
2022-10-01T11:26:30.926Z,8.30
2022-10-01T11:29:00.520Z,8.80
2022-10-01T11:31:47.187Z,8.48
2022-10-01T11:34:50.352Z,9.27
2022-10-01T11:37:48.485Z,7.43
2022-10-01T11:40:27.106Z,7.50
2022-10-01T11:45:45.870Z,9.90
2022-10-01T11:48:57.351Z,10.30
2022-10-01T11:51:42.073Z,7.53
2022-10-01T11:54:24.333Z,7.65
2022-10-01T11:57:17.151Z,12.40
2022-10-01T11:59:59.074Z,8.30
2022-10-01T12:02:40.269Z,6.72
2022-10-01T12:05:10.168Z,6.68
2022-10-01T12:08:15.234Z,7.05
2022-10-01T12:11:00.099Z,4.68
2022-10-01T12:13:53.196Z,5.75
2022-10-01T12:16:40.491Z,5.65
2022-10-01T12:19:26.712Z,5.78
2022-10-01T12:22:25.855Z,8.30
2022-10-01T12:24:54.345Z,7.20
2022-10-01T12:27:54.873Z,6.40
2022-10-01T12:30:32.433Z,6.72
2022-10-01T12:33:54.184Z,7.40
2022-10-01T12:37:04.619Z,6.75
2022-10-01T12:40:34.688Z,13.52
2022-10-01T12:44:02.841Z,6.93
2022-10-01T12:47:17.941Z,5.57
2022-10-01T12:50:11.560Z,7.45
2022-10-01T12:52:54.556Z,6.03
2022-10-01T12:56:02.349Z,7.13
2022-10-01T12:59:12.787Z,5.60
2022-10-01T13:02:16.518Z,6.60
2022-10-01T13:05:27.829Z,7.03
2022-10-01T13:08:22.544Z,5.68
2022-10-01T13:11:44.527Z,6.57
2022-10-01T13:14:19.284Z,8.98
2022-10-01T13:17:26.339Z,5.93
2022-10-01T13:20:35.578Z,7.93
2022-10-01T13:23:23.617Z,6.57
2022-10-01T13:26:29.253Z,8.88
2022-10-01T13:30:00.076Z,6.95
2022-10-01T13:32:33.275Z,6.47
2022-10-01T13:35:30.407Z,6.25
2022-10-01T13:38:00.008Z,6.97
2022-10-01T13:40:35.419Z,5.13
2022-10-01T13:43:23.819Z,4.65
2022-10-01T13:45:55.478Z,6.43
2022-10-01T13:48:34.804Z,5.20
2022-10-01T13:51:15.279Z,5.05
2022-10-01T13:53:42.113Z,4.97
2022-10-01T13:56:26.628Z,4.72
2022-10-01T13:58:53.692Z,3.85
2022-10-01T14:01:24.024Z,4.27
2022-10-01T14:04:23.595Z,3.53
2022-10-01T14:07:19.527Z,3.73
2022-10-01T14:09:57.917Z,3.03
2022-10-01T14:12:55.884Z,3.50
2022-10-01T14:15:55.400Z,4.82
2022-10-01T14:18:33.736Z,7.00
2022-10-01T14:21:48.490Z,4.30
2022-10-01T14:25:15.440Z,3.30
2022-10-01T14:28:22.562Z,4.43
2022-10-01T14:31:20.513Z,2.70
2022-10-01T14:34:38.506Z,2.70
2022-10-01T14:37:17.552Z,2.67
2022-10-01T14:39:44.968Z,2.63
2022-10-01T14:42:19.202Z,4.07
2022-10-01T14:44:47.904Z,2.65
2022-10-01T14:47:25.587Z,3.10
2022-10-01T14:49:55.408Z,3.65
2022-10-01T14:52:31.655Z,2.28
2022-10-01T14:55:13.003Z,3.15
2022-10-01T14:57:53.688Z,1.65
2022-10-01T15:00:30.513Z,1.95
2022-10-01T15:03:17.701Z,3.78
2022-10-01T15:05:51.763Z,1.90
2022-10-01T15:08:38.095Z,2.08
2022-10-01T15:11:16.292Z,2.88
2022-10-01T15:13:49.389Z,1.40
2022-10-01T15:16:25.910Z,1.60
2022-10-01T15:19:01.588Z,1.67
2022-10-01T15:21:47.124Z,2.05
2022-10-01T15:24:46.492Z,1.75
2022-10-01T15:27:20.720Z,1.70
2022-10-01T15:29:56.888Z,2.63
2022-10-01T15:32:28.184Z,2.35
2022-10-01T15:35:01.844Z,2.90
2022-10-01T15:37:35.917Z,1.83
2022-10-01T15:40:22.030Z,1.65
2022-10-01T15:43:25.266Z,3.20
2022-10-01T15:46:25.294Z,2.25
2022-10-01T15:49:18.294Z,3.33
2022-10-01T15:52:22.778Z,1.83
2022-10-01T15:55:00.553Z,1.63
2022-10-01T15:57:33.572Z,1.83
2022-10-01T16:00:01.135Z,1.70
2022-10-01T16:02:33.018Z,1.70
2022-10-01T16:05:07.438Z,1.63
2022-10-01T16:07:35.463Z,1.98
2022-10-01T16:12:59.088Z,1.52
2022-10-01T16:15:31.142Z,2.03
2022-10-01T16:18:05.051Z,4.22
2022-10-01T16:20:34.718Z,1.92
2022-10-01T16:23:48.118Z,2.33
2022-10-01T16:26:39.309Z,1.60
2022-10-01T16:29:24.036Z,1.63
2022-10-01T16:31:51.721Z,3.05
2022-10-01T16:34:21.193Z,5.45
2022-10-01T16:36:48.323Z,1.65
2022-10-01T16:39:15.668Z,3.00
2022-10-01T16:42:01.340Z,2.90
2022-10-01T16:44:39.910Z,2.25
2022-10-01T16:47:06.807Z,3.97
2022-10-01T16:49:33.889Z,3.97
2022-10-01T16:52:01.307Z,3.07
2022-10-01T16:54:28.932Z,3.15
2022-10-01T16:56:55.920Z,2.90
2022-10-01T16:59:24.812Z,2.60
2022-10-01T17:01:55.890Z,4.05
2022-10-01T17:04:23.745Z,2.35
2022-10-01T17:06:50.743Z,2.65
2022-10-01T17:09:17.677Z,2.15
2022-10-01T17:11:44.705Z,2.20
2022-10-01T17:14:21.143Z,2.40
2022-10-01T17:16:50.725Z,2.83
2022-10-01T17:19:18.601Z,3.97
2022-10-01T17:21:46.592Z,3.53
2022-10-01T17:26:45.460Z,3.92
2022-10-01T17:29:13.287Z,3.17
2022-10-01T17:31:44.794Z,3.70
2022-10-01T17:34:11.991Z,3.42
2022-10-01T17:36:39.900Z,4.07
2022-10-01T17:39:07.082Z,3.38
2022-10-01T17:41:34.279Z,3.25
2022-10-01T17:44:01.699Z,2.35
2022-10-01T17:46:30.947Z,2.78
2022-10-01T17:48:57.914Z,5.40
2022-10-01T17:51:25.920Z,4.93
2022-10-01T17:56:22.008Z,2.72
2022-10-01T17:58:48.963Z,2.50
2022-10-01T18:01:22.010Z,5.15
2022-10-01T18:03:56.260Z,3.33
2022-10-01T18:06:25.287Z,2.88
2022-10-01T18:08:56.620Z,2.80
2022-10-01T18:11:28.179Z,2.80
2022-10-01T18:13:55.624Z,2.15
2022-10-01T18:16:23.933Z,2.38
2022-10-01T18:21:51.123Z,2.63
2022-10-01T18:24:18.791Z,3.42
2022-10-01T18:26:46.018Z,5.90
2022-10-01T18:29:26.817Z,2.58
2022-10-01T18:32:12.820Z,5.03
2022-10-01T18:34:59.651Z,3.25
2022-10-01T18:37:40.102Z,2.42
2022-10-01T18:40:24.991Z,2.38
2022-10-01T18:43:07.424Z,2.45
2022-10-01T18:45:36.849Z,2.30
2022-10-01T18:48:39.809Z,1.75
2022-10-01T18:51:18.944Z,3.85
2022-10-01T18:54:02.214Z,3.05
2022-10-01T18:56:37.697Z,2.58
2022-10-01T18:59:52.548Z,2.72
2022-10-01T19:03:08.343Z,3.13
2022-10-01T19:06:34.704Z,3.70
2022-10-01T19:10:02.121Z,4.80
2022-10-01T19:13:13.925Z,2.85
2022-10-01T19:16:09.793Z,4.10
2022-10-01T19:19:20.110Z,2.83
2022-10-01T19:22:14.732Z,3.45
2022-10-01T19:25:27.131Z,3.80
2022-10-01T19:28:34.582Z,6.65
2022-10-01T19:31:22.308Z,2.88
2022-10-01T19:34:34.233Z,4.78
2022-10-01T19:37:15.336Z,2.92
2022-10-01T19:39:49.142Z,4.13
2022-10-01T19:42:38.234Z,4.35
2022-10-01T19:45:33.294Z,2.60
2022-10-01T19:48:18.200Z,3.42
2022-10-01T19:51:04.704Z,4.85
2022-10-01T19:53:39.654Z,5.22
2022-10-01T19:56:20.424Z,6.65
2022-10-01T19:58:47.523Z,4.50
2022-10-01T20:01:25.917Z,4.50
2022-10-01T20:04:09.998Z,5.07
2022-10-01T20:06:46.966Z,3.67
2022-10-01T20:09:40.440Z,4.90
2022-10-01T20:12:36.231Z,4.82
2022-10-01T20:16:04.559Z,5.22
2022-10-01T20:18:53.708Z,2.42
2022-10-01T20:21:49.830Z,2.65
2022-10-01T20:24:39.907Z,3.05
2022-10-01T20:28:01.194Z,2.42
2022-10-01T20:30:50.861Z,4.75
2022-10-01T20:34:06.942Z,2.00
2022-10-01T20:37:19.327Z,3.67
2022-10-01T20:40:03.362Z,4.72
2022-10-01T20:42:47.674Z,5.63
2022-10-01T20:45:34.010Z,4.10
2022-10-01T20:48:39.530Z,2.78
2022-10-01T20:51:22.667Z,3.60
2022-10-01T20:54:23.108Z,4.05
2022-10-01T20:57:25.729Z,4.90
2022-10-01T21:00:03.159Z,9.57
2022-10-01T21:02:51.271Z,4.30
2022-10-01T21:05:36.384Z,8.13
2022-10-01T21:08:29.570Z,4.32
2022-10-01T21:11:07.084Z,4.80
2022-10-01T21:13:55.174Z,6.63
2022-10-01T21:16:55.835Z,4.45
2022-10-01T21:19:52.235Z,2.75
2022-10-01T21:22:42.930Z,5.63
2022-10-01T21:25:48.323Z,8.20
2022-10-01T21:29:13.681Z,4.03
2022-10-01T21:31:58.997Z,5.72
2022-10-01T21:35:08.761Z,7.55
2022-10-01T21:37:56.171Z,5.82
2022-10-01T21:40:37.216Z,6.65
2022-10-01T21:44:00.650Z,4.68
2022-10-01T21:47:05.621Z,5.68
2022-10-01T21:50:11.988Z,5.40
2022-10-01T21:53:03.152Z,8.38
2022-10-01T21:56:08.132Z,7.25
2022-10-01T21:59:13.932Z,8.55
2022-10-01T22:02:37.073Z,9.38
2022-10-01T22:05:23.416Z,6.22
2022-10-01T22:08:33.368Z,4.93
2022-10-01T22:11:17.156Z,5.07
2022-10-01T22:14:02.253Z,9.65
2022-10-01T22:16:47.112Z,7.43
2022-10-01T22:19:29.404Z,6.45
2022-10-01T22:22:13.881Z,6.57
2022-10-01T22:24:58.613Z,8.27
2022-10-01T22:27:43.891Z,5.70
2022-10-01T22:30:25.015Z,4.07
2022-10-01T22:33:18.367Z,5.78
2022-10-01T22:36:29.158Z,4.45
2022-10-01T22:41:53.112Z,8.32
2022-10-01T22:44:23.626Z,5.10
2022-10-01T22:47:57.987Z,7.00
2022-10-01T22:51:28.498Z,8.10
2022-10-01T22:54:29.841Z,5.80
2022-10-01T22:57:54.678Z,7.25
2022-10-01T23:00:21.712Z,6.10
2022-10-01T23:03:02.160Z,6.22
2022-10-01T23:06:01.039Z,7.72
2022-10-01T23:09:08.151Z,8.77
2022-10-01T23:12:32.999Z,6.97
2022-10-01T23:15:27.446Z,9.35
2022-10-01T23:18:35.275Z,5.63
2022-10-01T23:21:56.064Z,6.30
2022-10-01T23:24:58.826Z,10.00
2022-10-01T23:28:13.562Z,6.85
2022-10-01T23:31:15.500Z,11.27
2022-10-01T23:34:16.690Z,9.18
2022-10-01T23:37:05.941Z,6.93
2022-10-01T23:40:13.096Z,6.93
2022-10-01T23:43:10.762Z,5.15
2022-10-01T23:46:07.968Z,7.95
2022-10-01T23:49:15.664Z,7.18
2022-10-01T23:52:28.190Z,9.00
2022-10-01T23:55:30.200Z,9.68
2022-10-01T23:58:03.361Z,12.00
